aviador You're here:

YBUD Decoded Metar

in
Report Time2017-08-17 13:00:00
UTC Time2017-08-17 13:30:59
Flight Rules vfr VFR
Wind340° at 06 kt
W.Decomp.*RWY 32: 5.6 kt HW 2.1 kt RCW
RWY 25: 6.0 kt RCW
W.Rank340° ranks 29
Current wind is below 340° avg. (8.3)
Visibility9999 m
Phenomena:N/A
Clouds:N/A
Expected CloudBase > 400 ft AGL from Temp-Dew spread
CeilingNone
Temp18°C
Dew Point17°C (94% RH)
QNH1014 hPa
Raw Report
METAR YBUD 171300Z AUTO 34006KT 9999 // NCD 18/17 Q1014=

Extra information for YBUD:More info

Social comments